Time;durP1;ratioP1;P1;durP2;ratioP2;P2;SDS_P1;SDS_P2;PMS_P1;PMS_P2;Temp;Humidity;BMP_temperature;BMP_pressure;BME280_temperature;BME280_humidity;BME280_pressure;Samples;Min_cycle;Max_cycle;Signal;HPM_P1;HPM_P2
2022/10/11 00:01:19;;;;;;;10.80;8.00;;;;;;;8.60;77.41;99459.51;1757667;80;21508;-58
2022/10/11 00:03:46;;;;;;;12.98;7.20;;;;;;;8.57;77.47;99458.34;1755992;81;20998;-58
2022/10/11 00:06:12;;;;;;;10.80;6.55;;;;;;;8.52;77.54;99470.70;1758405;80;20962;-59
2022/10/11 00:08:39;;;;;;;10.77;6.40;;;;;;;8.46;77.66;99456.20;1755655;80;21868;-59
2022/10/11 00:11:07;;;;;;;9.48;7.10;;;;;;;8.43;77.79;99459.36;1758329;80;21002;-59
2022/10/11 00:13:34;;;;;;;10.82;8.18;;;;;;;8.33;78.07;99465.84;1759717;80;20891;-59
2022/10/11 00:16:00;;;;;;;12.63;8.03;;;;;;;8.29;78.11;99462.08;1761150;80;21433;-58
2022/10/11 00:18:27;;;;;;;13.53;8.55;;;;;;;8.25;78.21;99461.80;1728442;81;20879;-59
2022/10/11 00:21:10;;;;;;;10.03;6.80;;;;;;;8.22;78.37;99461.93;1757293;80;20964;-59
2022/10/11 00:23:37;;;;;;;12.98;8.48;;;;;;;8.20;78.45;99457.24;1757607;81;21465;-58
2022/10/11 00:26:07;;;;;;;14.98;9.23;;;;;;;8.24;78.62;99453.62;1760869;80;20977;-59
2022/10/11 00:28:34;;;;;;;16.95;9.10;;;;;;;8.24;78.53;99453.62;1761892;80;20940;-59
2022/10/11 00:31:01;;;;;;;14.87;9.83;;;;;;;8.24;78.79;99456.69;1761741;80;20879;-58
2022/10/11 00:33:27;;;;;;;11.85;9.18;;;;;;;8.23;78.67;99459.74;1757741;80;21110;-58
2022/10/11 00:35:54;;;;;;;15.53;9.20;;;;;;;8.25;78.75;99457.90;1760962;81;21542;-58
2022/10/11 00:38:21;;;;;;;11.78;7.53;;;;;;;8.26;78.89;99462.22;1752980;80;21523;-59
2022/10/11 00:40:48;;;;;;;14.37;7.17;;;;;;;8.30;78.97;99466.36;1751278;80;21366;-58
2022/10/11 00:43:22;;;;;;;14.98;9.35;;;;;;;8.32;78.98;99468.05;1748668;81;20966;-58
2022/10/11 00:46:03;;;;;;;13.25;9.03;;;;;;;8.34;79.04;99471.44;1760774;80;21861;-59
2022/10/11 00:48:40;;;;;;;11.45;9.30;;;;;;;8.35;79.06;99473.14;1752714;80;21508;-58
2022/10/11 00:51:20;;;;;;;14.50;9.30;;;;;;;8.36;79.19;99469.63;1799791;78;20869;-58
2022/10/11 00:53:48;;;;;;;9.68;7.25;;;;;;;8.38;79.29;99465.20;1797441;78;20901;-58
2022/10/11 00:56:23;;;;;;;15.43;9.10;;;;;;;8.40;79.37;99467.30;1793279;79;21425;-58
2022/10/11 00:58:52;;;;;;;15.45;9.50;;;;;;;8.42;79.50;99469.39;1798299;78;21031;-58
2022/10/11 01:01:18;;;;;;;12.35;9.78;;;;;;;8.43;79.56;99468.03;1811666;78;20896;-59
2022/10/11 01:03:46;;;;;;;14.30;9.23;;;;;;;8.46;79.64;99484.81;1819858;78;20871;-59
2022/10/11 01:06:13;;;;;;;10.70;7.92;;;;;;;8.53;79.81;99485.39;1789003;78;20933;-58
2022/10/11 01:08:40;;;;;;;8.48;7.22;;;;;;;8.60;79.89;99481.63;1818512;78;21444;-58
2022/10/11 01:11:11;;;;;;;11.85;7.65;;;;;;;8.68;79.95;99480.84;1810004;78;21444;-58
2022/10/11 01:13:43;;;;;;;10.00;7.85;;;;;;;8.75;79.97;99485.31;1752616;81;20891;-58
2022/10/11 01:16:21;;;;;;;11.78;8.18;;;;;;;8.80;79.99;99477.31;1745246;81;20938;-59
2022/10/11 01:18:53;;;;;;;10.32;8.10;;;;;;;8.86;80.11;99482.25;1762178;80;20985;-59
2022/10/11 01:21:33;;;;;;;12.15;7.50;;;;;;;8.91;80.12;99478.98;1767143;80;20985;-60
2022/10/11 01:24:28;;;;;;;12.10;7.30;;;;;;;8.97;80.17;99477.41;1756558;80;21041;-59
2022/10/11 01:27:25;;;;;;;8.80;7.17;;;;;;;9.05;80.27;99479.22;1770411;80;21480;-60
2022/10/11 01:30:24;;;;;;;9.00;6.58;;;;;;;9.12;80.40;99481.91;1768367;80;20910;-60
2022/10/11 01:33:18;;;;;;;9.13;6.15;;;;;;;9.19;80.40;99482.50;1765799;80;20965;-59
2022/10/11 01:36:05;;;;;;;11.28;7.25;;;;;;;9.26;80.48;99475.24;1770559;80;21483;-59
2022/10/11 01:38:53;;;;;;;;;;;;;;;9.29;80.47;99473.80;1771355;80;21189;-59
2022/10/11 01:41:40;;;;;;;11.90;6.35;;;;;;;9.33;80.59;99476.67;1773869;80;20459;-59
2022/10/11 01:44:08;;;;;;;9.80;6.58;;;;;;;9.37;80.63;99471.69;1769412;80;20902;-60
2022/10/11 01:46:36;;;;;;;7.12;5.78;;;;;;;9.42;80.69;99471.02;1772534;80;21420;-60
2022/10/11 01:49:03;;;;;;;9.38;6.17;;;;;;;9.45;80.77;99477.39;1765555;80;21001;-59
2022/10/11 01:51:42;;;;;;;;;;;;;;;9.47;80.74;99480.78;1770412;80;21048;-59
2022/10/11 01:54:49;;;;;;;8.38;5.80;;;;;;;9.49;80.95;99493.26;1765867;80;20109;-60
2022/10/11 01:57:26;;;;;;;8.13;6.28;;;;;;;9.52;80.94;99487.06;1766148;80;20953;-60
2022/10/11 02:00:04;;;;;;;14.30;6.80;;;;;;;9.56;81.00;99484.25;1766274;80;20930;-60
2022/10/11 02:03:11;;;;;;;8.10;5.67;;;;;;;9.62;81.05;99489.17;1759891;81;21148;-60
2022/10/11 02:06:04;;;;;;;12.70;6.03;;;;;;;9.66;81.11;99495.54;1750390;81;21331;-60
2022/10/11 02:08:57;;;;;;;7.95;5.42;;;;;;;9.71;81.20;99496.17;1753498;81;20904;-60
2022/10/11 02:11:32;;;;;;;7.78;5.85;;;;;;;9.75;81.16;99496.43;1757233;80;21508;-60
2022/10/11 02:14:19;;;;;;;8.00;5.60;;;;;;;9.78;81.26;99485.85;1757676;80;20981;-59
2022/10/11 02:16:56;;;;;;;8.63;4.90;;;;;;;9.82;81.43;99489.98;1752697;81;20958;-60
2022/10/11 02:19:27;;;;;;;10.43;5.42;;;;;;;9.89;81.48;99494.01;1751048;81;21936;-60
2022/10/11 02:21:59;;;;;;;14.87;5.30;;;;;;;9.93;81.49;99486.41;1728683;81;20898;-59
2022/10/11 02:24:30;;;;;;;7.30;5.53;;;;;;;9.94;81.48;99489.42;1754469;79;20899;-59
2022/10/11 02:26:59;;;;;;;8.00;5.35;;;;;;;9.95;81.44;99493.70;1754403;81;20922;-60
2022/10/11 02:29:30;;;;;;;10.32;6.67;;;;;;;9.96;81.56;99490.16;1756546;81;20934;-59
2022/10/11 02:31:59;;;;;;;7.37;5.62;;;;;;;9.99;81.69;99497.84;1750408;81;21661;-59
2022/10/11 02:34:37;;;;;;;10.38;6.10;;;;;;;10.02;81.73;99505.52;1753254;81;21373;-60
2022/10/11 02:37:17;;;;;;;8.98;5.62;;;;;;;10.08;81.80;99503.94;1756971;81;21440;-60
2022/10/11 02:39:52;;;;;;;7.12;5.28;;;;;;;10.12;81.92;99499.88;1752983;79;20909;-60
2022/10/11 02:42:38;;;;;;;7.62;5.90;;;;;;;10.19;81.96;99509.06;1739578;81;20907;-60
2022/10/11 02:45:25;;;;;;;10.32;5.80;;;;;;;10.25;81.98;99506.16;1773651;80;21064;-59
2022/10/11 02:47:53;;;;;;;12.13;5.85;;;;;;;10.25;81.94;99490.50;1741130;80;21429;-60
2022/10/11 02:50:22;;;;;;;8.15;5.92;;;;;;;10.25;81.94;99490.50;1734655;80;20916;-59
2022/10/11 02:52:48;;;;;;;8.80;5.80;;;;;;;10.40;82.21;99517.19;1776806;80;21484;-60
2022/10/11 02:55:15;;;;;;;8.33;6.05;;;;;;;10.43;82.24;99515.72;1744211;81;20964;-59
2022/10/11 02:57:42;;;;;;;10.40;5.83;;;;;;;10.47;82.27;99514.67;1742531;81;21462;-59
2022/10/11 03:00:10;;;;;;;10.13;6.20;;;;;;;10.51;82.34;99523.18;1760722;79;20887;-60
2022/10/11 03:02:37;;;;;;;9.78;6.60;;;;;;;10.55;82.39;99518.64;1760871;80;20926;-60
2022/10/11 03:05:04;;;;;;;8.53;5.80;;;;;;;10.56;82.46;99518.58;1754697;81;20942;-59
2022/10/11 03:07:31;;;;;;;8.48;6.28;;;;;;;10.60;82.72;99517.95;1755906;81;21447;-60
2022/10/11 03:09:57;;;;;;;9.53;5.47;;;;;;;10.62;82.60;99517.42;1752395;81;21070;-60
2022/10/11 03:12:24;;;;;;;5.33;4.40;;;;;;;10.64;82.59;99527.31;1754233;81;21527;-60
2022/10/11 03:14:51;;;;;;;7.08;4.55;;;;;;;10.62;82.62;99528.70;1756799;81;21444;-60
2022/10/11 03:17:18;;;;;;;8.90;4.45;;;;;;;10.65;82.76;99530.32;1750728;81;20969;-60
2022/10/11 03:19:45;;;;;;;6.47;4.58;;;;;;;10.67;82.81;99531.06;1756449;81;20966;-60
2022/10/11 03:22:11;;;;;;;4.13;3.53;;;;;;;10.69;82.83;99531.84;1755358;80;21100;-60
2022/10/11 03:24:38;;;;;;;6.25;4.05;;;;;;;10.73;83.00;99536.00;1757797;79;21870;-59
2022/10/11 03:27:04;;;;;;;7.10;4.50;;;;;;;10.75;83.08;99538.05;1752846;81;20871;-60
2022/10/11 03:29:31;;;;;;;6.05;3.42;;;;;;;10.73;83.12;99540.76;1751366;81;20926;-60
2022/10/11 03:31:58;;;;;;;8.77;3.90;;;;;;;10.73;83.43;99541.22;1760483;81;20947;-59
2022/10/11 03:34:24;;;;;;;6.70;3.50;;;;;;;10.76;83.38;99551.52;1752770;81;21115;-59
2022/10/11 03:36:51;;;;;;;4.27;3.10;;;;;;;10.75;83.64;99549.80;1748362;81;20918;-60
2022/10/11 03:39:18;;;;;;;6.30;3.23;;;;;;;10.82;83.58;99552.50;1751895;81;21488;-60
2022/10/11 03:41:45;;;;;;;8.20;2.92;;;;;;;10.84;83.56;99563.72;1751899;81;20911;-60
2022/10/11 03:44:11;;;;;;;9.33;2.77;;;;;;;10.89;83.70;99576.06;1750606;80;21073;-60
2022/10/11 03:46:38;;;;;;;4.53;2.60;;;;;;;10.90;83.74;99575.16;1755669;80;21042;-60
2022/10/11 03:49:04;;;;;;;3.47;2.33;;;;;;;10.92;83.83;99577.23;1750615;79;20894;-59
2022/10/11 03:51:31;;;;;;;5.83;3.40;;;;;;;10.94;83.82;99574.06;1755053;79;20926;-60
2022/10/11 03:53:58;;;;;;;4.30;2.13;;;;;;;10.95;83.92;99582.74;1753815;80;20930;-61
2022/10/11 03:56:24;;;;;;;4.93;2.00;;;;;;;10.95;83.89;99591.45;1753682;81;20973;-60
2022/10/11 03:58:51;;;;;;;4.17;1.77;;;;;;;11.00;84.38;99586.44;1749200;81;21067;-60
2022/10/11 04:01:18;;;;;;;3.83;1.42;;;;;;;10.94;84.27;99597.58;1748677;79;21384;-60
2022/10/11 04:03:45;;;;;;;3.27;1.47;;;;;;;10.91;85.10;99600.34;1751453;81;20946;-60
2022/10/11 04:06:12;;;;;;;2.97;1.47;;;;;;;10.90;85.03;99605.20;1754987;81;20950;-60
2022/10/11 04:08:38;;;;;;;5.40;1.60;;;;;;;10.87;85.03;99605.36;1753273;81;20922;-59
2022/10/11 04:11:05;;;;;;;3.65;1.50;;;;;;;10.89;84.83;99608.71;1756137;81;21856;-60
2022/10/11 04:13:32;;;;;;;4.55;1.75;;;;;;;10.91;85.04;99616.02;1751840;81;20977;-59
2022/10/11 04:15:58;;;;;;;3.92;1.50;;;;;;;10.86;84.49;99618.02;1752514;81;20875;-60
2022/10/11 04:18:25;;;;;;;5.00;1.10;;;;;;;10.77;84.72;99628.09;1755694;81;20951;-60
2022/10/11 04:20:52;;;;;;;5.95;1.40;;;;;;;10.73;84.89;99635.23;1751020;81;20934;-60
2022/10/11 04:23:18;;;;;;;4.80;1.00;;;;;;;10.69;85.22;99635.83;1752957;81;21669;-60
2022/10/11 04:25:47;;;;;;;5.57;1.63;;;;;;;10.64;85.11;99634.36;1751439;79;21734;-60
2022/10/11 04:28:13;;;;;;;4.33;1.50;;;;;;;10.60;85.00;99653.72;1759934;79;20966;-60
2022/10/11 04:30:40;;;;;;;2.20;0.88;;;;;;;10.51;84.86;99649.33;1754656;81;20887;-59
2022/10/11 04:33:07;;;;;;;6.37;1.95;;;;;;;10.43;84.65;99659.28;1749241;81;20969;-60
2022/10/11 04:35:33;;;;;;;6.85;2.42;;;;;;;10.36;85.18;99657.87;1749847;81;21880;-60
2022/10/11 04:38:00;;;;;;;5.53;1.82;;;;;;;10.28;85.14;99662.63;1758236;81;20938;-60
2022/10/11 04:40:27;;;;;;;5.87;1.80;;;;;;;10.27;84.90;99657.01;1758722;81;20906;-60
2022/10/11 04:42:54;;;;;;;4.97;2.10;;;;;;;10.26;85.10;99660.05;1750761;81;21472;-60
2022/10/11 04:45:21;;;;;;;8.73;1.57;;;;;;;10.25;84.79;99671.42;1752173;81;21089;-60
2022/10/11 04:47:48;;;;;;;4.10;1.85;;;;;;;10.23;85.67;99677.62;1750481;81;21032;-60
2022/10/11 04:50:15;;;;;;;4.83;1.13;;;;;;;10.25;85.17;99675.77;1749933;79;21464;-60
2022/10/11 04:52:42;;;;;;;4.37;2.00;;;;;;;10.24;85.65;99682.75;1757288;81;21483;-61
2022/10/11 04:55:10;;;;;;;7.75;1.30;;;;;;;10.23;85.99;99689.36;1751128;81;20875;-61
2022/10/11 04:57:37;;;;;;;5.75;1.32;;;;;;;10.23;85.18;99689.36;1756624;81;20863;-61
2022/10/11 05:00:05;;;;;;;4.00;1.07;;;;;;;10.19;85.54;99694.32;1752932;81;21063;-61
2022/10/11 05:02:32;;;;;;;4.75;1.32;;;;;;;10.14;85.30;99691.07;1736148;81;21492;-60
2022/10/11 05:04:58;;;;;;;6.80;1.50;;;;;;;10.07;85.46;99696.58;1734112;82;20950;-61
2022/10/11 05:07:25;;;;;;;6.97;1.10;;;;;;;10.01;85.24;99704.69;1735253;82;20946;-60
2022/10/11 05:09:52;;;;;;;4.08;1.20;;;;;;;9.98;85.17;99713.95;1734975;81;21438;-60
2022/10/11 05:12:18;;;;;;;4.93;1.67;;;;;;;9.94;85.16;99724.16;1736984;81;20955;-61
2022/10/11 05:14:45;;;;;;;5.95;1.37;;;;;;;9.88;85.15;99720.95;1736117;82;21314;-62
2022/10/11 05:17:12;;;;;;;5.37;1.30;;;;;;;9.84;85.07;99725.46;1735683;82;20967;-61
2022/10/11 05:19:38;;;;;;;5.03;1.90;;;;;;;9.77;85.06;99729.23;1737371;82;20950;-61
2022/10/11 05:22:05;;;;;;;7.43;1.30;;;;;;;9.71;85.09;99732.13;1736208;80;20887;-61
2022/10/11 05:24:32;;;;;;;6.93;1.70;;;;;;;9.66;85.12;99739.29;1738070;82;21821;-60
2022/10/11 05:26:58;;;;;;;5.00;1.22;;;;;;;9.67;84.94;99743.61;1734784;81;21265;-61
2022/10/11 05:29:25;;;;;;;4.10;1.07;;;;;;;9.63;84.89;99746.36;1735416;82;20928;-61
2022/10/11 05:31:52;;;;;;;5.87;1.50;;;;;;;9.63;84.86;99747.66;1728863;82;20960;-61
2022/10/11 05:34:19;;;;;;;8.13;1.42;;;;;;;9.63;84.90;99748.96;1733774;82;20916;-61
2022/10/11 05:36:46;;;;;;;6.12;1.32;;;;;;;9.67;84.94;99754.04;1734930;82;21111;-61
2022/10/11 05:39:12;;;;;;;8.23;1.65;;;;;;;9.84;85.25;99755.45;1736725;82;21001;-61
2022/10/11 05:41:39;;;;;;;6.58;1.20;;;;;;;10.14;85.21;99761.52;1730962;81;20911;-61
2022/10/11 05:44:07;;;;;;;4.35;1.30;;;;;;;10.21;84.75;99769.01;1738684;82;20892;-61
2022/10/11 05:46:34;;;;;;;4.75;1.30;;;;;;;10.24;84.85;99773.25;1732823;82;20926;-60
2022/10/11 05:49:01;;;;;;;5.45;1.12;;;;;;;10.39;84.82;99777.82;1731926;81;21024;-61
2022/10/11 05:51:27;;;;;;;5.00;1.30;;;;;;;10.58;84.87;99790.01;1738357;81;20903;-61
2022/10/11 05:53:55;;;;;;;6.12;2.52;;;;;;;10.78;84.92;99786.00;1734123;81;21157;-61
2022/10/11 05:56:24;;;;;;;7.30;1.67;;;;;;;10.94;84.58;99788.28;1702865;82;20988;-61
2022/10/11 05:58:52;;;;;;;6.60;1.62;;;;;;;10.86;84.35;99790.41;1737542;81;20985;-61
2022/10/11 06:01:21;;;;;;;;;;;;;;;10.80;84.41;99801.15;1737803;81;21030;-61
2022/10/11 06:03:48;;;;;;;6.37;1.30;;;;;;;10.72;84.44;99801.50;1761615;79;37647;-62
2022/10/11 06:06:16;;;;;;;5.22;1.52;;;;;;;10.73;84.72;99808.90;1768035;80;20911;-61
2022/10/11 06:08:43;;;;;;;6.75;1.80;;;;;;;10.93;84.86;99815.80;1775214;79;21467;-62
2022/10/11 06:11:24;;;;;;;5.83;1.82;;;;;;;11.28;85.08;99812.78;1765412;81;20867;-62
2022/10/11 06:14:01;;;;;;;6.10;1.85;;;;;;;11.63;84.71;99820.67;1763100;81;21822;-61
2022/10/11 06:16:25;;;;;;;6.12;1.60;;;;;;;11.90;84.14;99814.98;1762427;81;20861;-62
2022/10/11 06:18:57;;;;;;;5.95;1.77;;;;;;;12.29;84.33;99825.16;1756725;79;20990;-62
2022/10/11 06:21:25;;;;;;;10.30;2.58;;;;;;;12.63;84.12;99832.09;1756836;79;20900;-62
2022/10/11 06:23:52;;;;;;;9.58;2.35;;;;;;;12.67;83.47;99838.84;1761895;79;21347;-62
2022/10/11 06:26:19;;;;;;;7.30;2.00;;;;;;;12.86;83.78;99829.52;1762729;79;21029;-62
2022/10/11 06:28:46;;;;;;;8.05;1.72;;;;;;;13.06;83.77;99834.97;1758094;81;21493;-62
2022/10/11 06:31:13;;;;;;;7.20;2.47;;;;;;;13.32;83.90;99839.23;1772806;79;20919;-62
2022/10/11 06:33:39;;;;;;;7.58;2.08;;;;;;;13.36;83.24;99842.05;1762728;81;21498;-62
2022/10/11 06:36:10;;;;;;;13.08;2.72;;;;;;;13.55;82.88;99857.12;1760477;79;20884;-61
2022/10/11 06:38:37;;;;;;;7.12;1.70;;;;;;;13.55;82.88;99857.12;1759848;80;21101;-62
2022/10/11 06:41:13;;;;;;;9.70;1.80;;;;;;;13.58;82.59;99850.41;1767101;80;21425;-63
2022/10/11 06:43:39;;;;;;;8.08;1.92;;;;;;;13.58;82.67;99854.78;1802797;79;20930;-62
2022/10/11 06:46:07;;;;;;;5.75;2.15;;;;;;;13.66;82.10;99858.66;1810697;79;20848;-62
2022/10/11 06:48:34;;;;;;;7.40;2.17;;;;;;;13.65;81.94;99864.84;1810210;79;20981;-62
2022/10/11 06:51:00;;;;;;;5.92;2.20;;;;;;;13.77;82.35;99864.59;1809659;78;24135;-62
2022/10/11 06:53:27;;;;;;;10.03;2.22;;;;;;;13.78;82.13;99866.75;1806953;78;21495;-62
2022/10/11 06:56:02;;;;;;;9.23;1.95;;;;;;;13.81;81.73;99870.54;1811120;78;20856;-62
2022/10/11 06:58:29;;;;;;;8.88;2.45;;;;;;;13.89;81.91;99877.47;1811883;78;20989;-62
2022/10/11 07:01:01;;;;;;;9.28;2.40;;;;;;;13.89;81.16;99874.84;1813333;78;21465;-62
2022/10/11 07:03:29;;;;;;;5.17;1.90;;;;;;;13.79;81.45;99879.80;1817671;78;21038;-62
2022/10/11 07:06:05;;;;;;;7.92;2.20;;;;;;;13.80;81.58;99880.64;1815591;78;20895;-62
2022/10/11 07:08:32;;;;;;;7.87;2.25;;;;;;;13.69;81.10;99880.41;1814094;78;20936;-62
2022/10/11 07:11:03;;;;;;;11.35;2.02;;;;;;;13.51;80.96;99880.54;1812727;78;20969;-61
2022/10/11 07:13:30;;;;;;;8.23;2.35;;;;;;;13.09;80.20;99868.87;1810548;78;20921;-62
2022/10/11 07:16:03;;;;;;;9.13;2.08;;;;;;;12.98;80.82;99889.11;1820307;78;21653;-62
2022/10/11 07:18:30;;;;;;;9.65;2.00;;;;;;;12.87;80.57;99898.48;1817482;78;20937;-61
2022/10/11 07:21:00;;;;;;;6.90;2.00;;;;;;;12.83;81.29;99902.22;1791446;78;20918;-62
2022/10/11 07:23:27;;;;;;;11.78;2.77;;;;;;;12.88;81.00;99905.41;1822398;78;21405;-61
2022/10/11 07:25:55;;;;;;;9.65;2.10;;;;;;;12.81;80.65;99904.06;1818813;78;20959;-61
2022/10/11 07:28:23;;;;;;;10.82;2.15;;;;;;;12.80;80.53;99907.59;1822628;78;21797;-61
2022/10/11 07:30:50;;;;;;;6.85;2.10;;;;;;;12.76;80.52;99911.69;1821280;78;20959;-62
2022/10/11 07:33:17;;;;;;;8.78;2.33;;;;;;;12.79;80.87;99910.69;1806285;78;20866;-61
2022/10/11 07:35:43;;;;;;;11.15;2.15;;;;;;;12.87;80.37;99912.91;1811947;78;20988;-62
2022/10/11 07:38:11;;;;;;;6.93;1.87;;;;;;;12.89;80.40;99916.30;1815940;78;20925;-62
2022/10/11 07:40:42;;;;;;;;;;;;;;;12.87;80.25;99926.00;1816314;78;21042;-62
2022/10/11 07:43:10;;;;;;;8.23;2.35;;;;;;;12.72;78.92;99920.66;1810734;78;20422;-62
2022/10/11 07:45:41;;;;;;;14.70;2.35;;;;;;;12.62;79.63;99919.44;1818889;78;20993;-62
2022/10/11 07:48:08;;;;;;;12.13;2.37;;;;;;;12.70;79.73;99930.36;1808071;78;20903;-62
2022/10/11 07:50:35;;;;;;;10.32;2.40;;;;;;;12.69;79.35;99936.54;1811183;78;20975;-62
2022/10/11 07:53:02;;;;;;;7.58;2.05;;;;;;;12.69;79.02;99936.54;1819995;78;22623;-62
2022/10/11 07:55:33;;;;;;;8.58;2.20;;;;;;;12.72;79.63;99939.00;1815241;78;20981;-62
2022/10/11 07:57:59;;;;;;;5.70;1.90;;;;;;;12.86;79.23;99940.05;1810529;78;20941;-62
2022/10/11 08:00:26;;;;;;;10.18;2.90;;;;;;;12.82;79.11;99937.19;1814888;78;20839;-61
2022/10/11 08:02:53;;;;;;;8.45;1.90;;;;;;;12.95;78.53;99946.10;1809541;78;20948;-62
2022/10/11 08:05:20;;;;;;;6.67;2.47;;;;;;;12.95;78.99;99947.41;1799802;78;21095;-61
2022/10/11 08:07:47;;;;;;;6.55;1.98;;;;;;;12.92;78.43;99954.13;1814189;78;20841;-62
2022/10/11 08:10:14;;;;;;;12.28;2.60;;;;;;;12.85;78.00;99968.47;1802290;78;21370;-61
2022/10/11 08:12:41;;;;;;;12.05;3.12;;;;;;;12.80;77.78;99957.38;1809765;78;21027;-62
2022/10/11 08:15:08;;;;;;;8.03;2.42;;;;;;;12.73;77.82;99966.04;1815897;78;20898;-61
2022/10/11 08:17:35;;;;;;;10.38;2.42;;;;;;;12.79;77.88;99962.25;1806247;78;21005;-61
2022/10/11 08:20:03;;;;;;;8.35;2.42;;;;;;;12.83;77.58;99960.70;1818439;78;20997;-61
2022/10/11 08:22:29;;;;;;;7.03;1.92;;;;;;;12.86;77.35;99965.78;1818132;78;20895;-61
2022/10/11 08:24:56;;;;;;;7.87;1.95;;;;;;;12.83;77.62;99962.48;1814526;78;20851;-61
2022/10/11 08:27:23;;;;;;;7.73;2.07;;;;;;;12.95;77.58;99968.38;1815700;78;21404;-61
2022/10/11 08:29:50;;;;;;;7.73;2.63;;;;;;;12.99;77.44;99964.66;1813957;77;21208;-62
2022/10/11 08:32:17;;;;;;;9.68;2.10;;;;;;;13.05;77.35;99974.84;1812352;78;20947;-63
2022/10/11 08:34:44;;;;;;;9.60;2.02;;;;;;;13.25;77.59;99961.09;1808300;78;20904;-62
2022/10/11 08:37:10;;;;;;;10.67;2.50;;;;;;;13.47;77.47;99968.22;1807823;78;20923;-62
2022/10/11 08:39:37;;;;;;;11.30;2.03;;;;;;;13.63;77.10;99961.16;1812806;78;21159;-63
2022/10/11 08:42:09;;;;;;;6.73;2.00;;;;;;;13.88;77.48;99962.41;1819164;78;21043;-63
2022/10/11 08:44:49;;;;;;;7.47;1.85;;;;;;;14.18;76.94;99965.52;1817778;78;21333;-63
2022/10/11 08:47:47;;;;;;;8.63;2.25;;;;;;;14.14;76.20;99971.88;1811930;78;20934;-64
2022/10/11 08:50:22;;;;;;;10.03;2.35;;;;;;;13.96;76.17;99986.44;1812100;78;20884;-64
2022/10/11 08:53:00;;;;;;;9.00;2.20;;;;;;;13.49;75.50;99986.01;1815217;78;20922;-62
2022/10/11 08:55:43;;;;;;;10.65;1.95;;;;;;;13.14;75.67;99995.30;1814192;78;21137;-62
2022/10/11 08:58:18;;;;;;;10.23;2.02;;;;;;;12.91;75.80;99995.66;1803768;78;21002;-62
2022/10/11 09:00:47;;;;;;;5.70;2.02;;;;;;;12.68;75.63;100010.80;1805123;78;20964;-62
2022/10/11 09:03:37;;;;;;;10.45;2.15;;;;;;;12.56;75.51;100011.44;1808351;78;20933;-63
2022/10/11 09:06:22;;;;;;;7.83;2.12;;;;;;;12.31;75.55;100019.21;1809051;78;20942;-62
2022/10/11 09:09:03;;;;;;;9.30;2.50;;;;;;;12.07;75.36;100022.59;1754555;81;20932;-63
2022/10/11 09:12:14;;;;;;;9.13;2.72;;;;;;;12.17;76.14;100018.20;1757394;81;20903;-61
2022/10/11 09:14:55;;;;;;;7.05;1.87;;;;;;;12.39;76.13;100014.07;1751727;81;21009;-61
2022/10/11 09:18:08;;;;;;;8.88;2.00;;;;;;;12.61;76.42;100026.47;1753860;81;20946;-61
2022/10/11 09:20:58;;;;;;;6.62;2.35;;;;;;;12.74;75.65;100028.85;1747248;81;21420;-61
2022/10/11 09:24:00;;;;;;;9.18;2.55;;;;;;;12.71;75.90;100035.53;1729807;81;21092;-61
2022/10/11 09:26:44;;;;;;;8.03;1.85;;;;;;;12.89;75.96;100036.84;1730082;81;21031;-61
2022/10/11 09:29:31;;;;;;;10.60;2.50;;;;;;;13.05;76.16;100035.12;1724768;81;20979;-61
2022/10/11 09:31:58;;;;;;;;;;;;;;;13.25;76.16;100038.00;1732995;81;20896;-61
2022/10/11 09:34:31;;;;;;;5.30;1.72;;;;;;;13.37;75.82;100037.84;1735804;81;20232;-61
2022/10/11 09:37:24;;;;;;;10.60;2.27;;;;;;;13.54;75.56;100036.92;1740516;81;21132;-61
2022/10/11 09:40:07;;;;;;;10.60;2.40;;;;;;;13.66;75.69;100026.58;1744951;81;20962;-61
2022/10/11 09:42:37;;;;;;;10.85;2.25;;;;;;;13.93;75.70;100031.24;1686985;84;21638;-61
2022/10/11 09:45:09;;;;;;;6.92;1.98;;;;;;;14.16;75.35;100036.97;1651923;85;21455;-61
2022/10/11 09:47:37;;;;;;;12.30;2.52;;;;;;;14.35;75.06;100037.61;1673070;83;20883;-61
2022/10/11 09:50:09;;;;;;;6.83;2.30;;;;;;;14.35;74.57;100032.36;1678174;83;20997;-61
2022/10/11 09:52:53;;;;;;;10.35;2.47;;;;;;;14.34;74.10;100038.56;1671209;83;21519;-61
2022/10/11 09:55:51;;;;;;;13.00;3.45;;;;;;;14.33;74.16;100032.43;1677719;83;21032;-61
2022/10/11 09:58:32;;;;;;;7.60;2.60;;;;;;;14.26;73.78;100035.52;1677167;84;20973;-62
2022/10/11 10:01:07;;;;;;;11.18;2.80;;;;;;;14.45;74.31;100049.29;1677970;83;20982;-61
2022/10/11 10:03:37;;;;;;;8.38;2.35;;;;;;;14.60;73.61;100040.16;1658241;85;20960;-62
2022/10/11 10:06:09;;;;;;;8.28;2.35;;;;;;;14.61;72.86;100043.16;1649718;86;21019;-61
2022/10/11 10:08:36;;;;;;;10.65;2.92;;;;;;;14.47;71.39;100057.06;1651230;86;20959;-61
2022/10/11 10:11:07;;;;;;;14.60;2.85;;;;;;;14.29;72.62;100062.92;1657398;84;20875;-63
2022/10/11 10:13:48;;;;;;;7.12;2.35;;;;;;;14.30;72.73;100055.41;1651163;85;21506;-61
2022/10/11 10:16:30;;;;;;;43.68;21.62;;;;;;;14.36;70.69;100069.50;1656591;84;21929;-62
2022/10/11 10:19:02;;;;;;;17.55;6.65;;;;;;;14.09;71.20;100074.09;1647891;81;20933;-62
2022/10/11 10:21:40;;;;;;;10.95;2.80;;;;;;;13.64;70.24;100078.32;1733581;82;20900;-62
2022/10/11 10:24:17;;;;;;;12.82;3.02;;;;;;;13.27;67.47;100084.66;1757580;80;20966;-62
2022/10/11 10:27:09;;;;;;;9.25;2.42;;;;;;;12.85;69.61;100085.08;1715748;83;20906;-62
2022/10/11 10:29:36;;;;;;;7.40;1.90;;;;;;;12.62;70.10;100091.02;1720764;82;21020;-61
2022/10/11 10:32:13;;;;;;;8.23;2.20;;;;;;;12.41;68.39;100096.03;1729998;81;21411;-61
2022/10/11 10:34:57;;;;;;;7.17;1.60;;;;;;;12.27;69.53;100106.70;1716689;81;20990;-60
2022/10/11 10:37:35;;;;;;;7.30;1.90;;;;;;;12.12;69.51;100098.26;1719204;81;20923;-61
2022/10/11 10:40:31;;;;;;;8.40;2.05;;;;;;;11.99;68.99;100102.40;1734677;81;20937;-62
2022/10/11 10:42:58;;;;;;;11.05;2.10;;;;;;;11.93;68.70;100102.22;1737330;81;21243;-61
2022/10/11 10:45:36;;;;;;;8.83;2.03;;;;;;;11.96;69.29;100109.05;1727392;81;20945;-61
2022/10/11 10:48:19;;;;;;;8.30;2.98;;;;;;;12.15;69.84;100109.88;1755318;80;20979;-61
2022/10/11 10:51:00;;;;;;;12.25;2.25;;;;;;;12.33;68.88;100128.28;1724799;81;21560;-61
2022/10/11 10:53:32;;;;;;;7.95;2.27;;;;;;;12.44;69.66;100106.35;1750979;80;21037;-61
2022/10/11 10:56:13;;;;;;;15.08;2.67;;;;;;;12.52;68.87;100118.14;1746548;81;21039;-61
2022/10/11 10:58:51;;;;;;;11.75;2.30;;;;;;;12.54;69.37;100123.29;1741704;81;20899;-61
2022/10/11 11:01:26;;;;;;;9.20;2.62;;;;;;;12.51;69.12;100120.83;1681108;84;20954;-61
2022/10/11 11:04:07;;;;;;;7.90;1.98;;;;;;;12.46;69.02;100117.58;1681969;83;20950;-61
2022/10/11 11:06:58;;;;;;;7.70;2.37;;;;;;;12.39;69.31;100127.98;1707213;82;21417;-61
2022/10/11 11:09:48;;;;;;;9.88;2.05;;;;;;;12.41;69.33;100116.98;1716934;82;21472;-61
2022/10/11 11:12:36;;;;;;;6.87;1.90;;;;;;;12.59;69.39;100107.36;1725476;81;21108;-61
2022/10/11 11:15:23;;;;;;;7.12;1.70;;;;;;;12.65;69.12;100118.37;1712218;82;20911;-61
2022/10/11 11:18:10;;;;;;;;;;;;;;;12.87;68.39;100131.25;1714660;82;21252;-61
2022/10/11 11:20:48;;;;;;;4.83;1.50;;;;;;;12.99;68.86;100133.28;1720583;81;20174;-61
2022/10/11 11:23:25;;;;;;;4.55;1.62;;;;;;;13.12;68.66;100125.62;1713588;81;21207;-61
2022/10/11 11:26:06;;;;;;;4.20;1.50;;;;;;;13.23;69.06;100128.16;1718238;82;21101;-61
2022/10/11 11:29:04;;;;;;;8.70;1.77;;;;;;;13.31;66.95;100136.05;1719550;82;20975;-61
2022/10/11 11:32:00;;;;;;;9.25;1.77;;;;;;;13.16;67.77;100140.28;1718455;82;21484;-61
2022/10/11 11:34:36;;;;;;;9.83;2.00;;;;;;;12.91;66.33;100137.18;1716761;82;20915;-61
2022/10/11 11:37:26;;;;;;;6.62;1.40;;;;;;;12.74;67.58;100138.90;1719817;81;21710;-61
2022/10/11 11:40:01;;;;;;;7.83;1.77;;;;;;;12.63;67.20;100129.84;1801095;78;20874;-61
2022/10/11 11:42:51;;;;;;;8.18;1.82;;;;;;;12.57;67.44;100138.86;1777720;78;20918;-61
2022/10/11 11:45:22;;;;;;;7.78;2.05;;;;;;;12.45;66.58;100132.91;1809797;78;20890;-61
2022/10/11 11:48:03;;;;;;;9.70;1.95;;;;;;;12.36;66.46;100132.05;1797074;78;21011;-61
2022/10/11 11:50:38;;;;;;;12.40;1.72;;;;;;;12.29;65.99;100136.28;1807870;78;20969;-61
2022/10/11 11:53:15;;;;;;;8.15;2.20;;;;;;;12.16;66.10;100137.78;1810416;78;21012;-61
2022/10/11 11:56:00;;;;;;;7.87;2.10;;;;;;;12.17;66.20;100138.16;1809675;78;20880;-61
2022/10/11 11:58:53;;;;;;;7.42;2.00;;;;;;;12.19;66.60;100136.32;1790859;79;20929;-61